Time;durP1;ratioP1;P1;durP2;ratioP2;P2;SDS_P1;SDS_P2;PMS_P1;PMS_P2;Temp;Humidity;BMP_temperature;BMP_pressure;BME280_temperature;BME280_humidity;BME280_pressure;Samples;Min_cycle;Max_cycle;Signal;HPM_P1;HPM_P2
2023/03/31 00:00:13;;;;;;;4.10;3.60;;;;;;;15.59;52.85;96407.34;4880692;29;20205;-91
2023/03/31 00:02:40;;;;;;;3.67;3.17;;;;;;;14.75;52.90;96228.91;4881831;29;20206;-90
2023/03/31 00:05:26;;;;;;;;;;;;;;;;;;;;;
2023/03/31 00:08:00;;;;;;;4.87;3.50;;;;;;;13.85;52.71;96078.25;4882496;29;20202;-90
2023/03/31 00:10:34;;;;;;;3.23;2.90;;;;;;;16.06;52.81;96495.09;4893289;29;20213;-91
2023/03/31 00:13:02;;;;;;;3.80;3.47;;;;;;;15.47;53.00;96352.91;4917392;29;20205;-91
2023/03/31 00:15:32;;;;;;;3.50;3.20;;;;;;;16.77;52.91;96558.38;4878283;29;20306;-91
2023/03/31 00:18:01;;;;;;;4.50;3.40;;;;;;;15.42;52.56;96329.13;4895542;29;20308;-91
2023/03/31 00:20:30;;;;;;;3.30;2.97;;;;;;;15.87;52.81;96392.25;4873296;29;20211;-90
2023/03/31 00:23:02;;;;;;;3.40;3.10;;;;;;;14.65;52.68;96178.00;4906457;29;20205;-92
2023/03/31 00:25:32;;;;;;;4.60;3.57;;;;;;;15.81;53.12;96416.56;4869968;29;20601;-90
2023/03/31 00:28:15;;;;;;;3.13;2.90;;;;;;;16.25;52.32;96469.56;4879780;29;20419;-91
2023/03/31 00:30:46;;;;;;;3.80;3.10;;;;;;;15.75;52.83;96361.47;4899656;29;20233;-92
2023/03/31 00:33:15;;;;;;;3.63;3.03;;;;;;;15.65;52.62;96334.13;4896024;29;20211;-90
2023/03/31 00:35:50;;;;;;;7.80;3.17;;;;;;;15.89;52.74;96428.66;4886331;29;20714;-91
2023/03/31 00:38:28;;;;;;;3.37;3.07;;;;;;;18.30;52.55;96814.81;4891238;29;20285;-90
2023/03/31 00:40:58;;;;;;;3.33;3.03;;;;;;;15.73;52.67;96337.78;4910351;29;20217;-92
2023/03/31 00:43:28;;;;;;;3.47;3.10;;;;;;;19.21;52.71;96933.84;4896255;29;20584;-90
2023/03/31 00:46:21;;;;;;;3.70;3.20;;;;;;;19.20;52.72;96921.94;4881673;29;20213;-91
2023/03/31 00:48:56;;;;;;;3.07;2.80;;;;;;;15.69;52.59;96356.19;4884317;29;20224;-90
2023/03/31 00:51:30;;;;;;;3.13;2.80;;;;;;;15.99;52.77;96401.97;4872782;29;20214;-92
2023/03/31 00:54:01;;;;;;;3.83;3.20;;;;;;;15.93;52.62;96372.19;4870717;29;20241;-91
2023/03/31 00:56:38;;;;;;;4.03;3.43;;;;;;;16.32;52.83;96441.06;4898211;29;20225;-91
2023/03/31 00:59:06;;;;;;;3.33;2.97;;;;;;;19.20;52.67;96921.94;4872302;29;20250;-92
2023/03/31 01:01:41;;;;;;;3.50;3.03;;;;;;;15.50;52.57;96272.00;4883586;29;20646;-90
2023/03/31 01:04:11;;;;;;;3.87;3.17;;;;;;;16.01;52.67;96368.25;4877390;29;20218;-90
2023/03/31 01:06:50;;;;;;;3.67;3.33;;;;;;;19.03;52.80;96867.09;4870969;29;20237;-91
2023/03/31 01:09:21;;;;;;;3.73;3.30;;;;;;;15.00;52.48;96170.75;4888026;29;20300;-91
2023/03/31 01:11:52;;;;;;;3.20;2.87;;;;;;;16.02;52.71;96371.66;4892254;29;20269;-91
2023/03/31 01:14:25;;;;;;;3.17;2.87;;;;;;;15.99;52.68;96386.75;4876919;29;20266;-90
2023/03/31 01:16:57;;;;;;;3.50;3.20;;;;;;;14.75;52.33;96121.03;4868681;29;20232;-91
2023/03/31 01:20:00;;;;;;;3.80;3.10;;;;;;;19.20;52.48;96867.56;4893697;29;20235;-91
2023/03/31 01:23:05;;;;;;;3.77;3.20;;;;;;;19.19;52.60;96865.84;4915516;29;20206;-91
2023/03/31 01:26:21;;;;;;;3.13;2.73;;;;;;;19.18;52.47;96864.97;4913929;29;20599;-89
2023/03/31 01:29:11;;;;;;;4.10;2.90;;;;;;;16.47;52.37;96417.91;4872151;29;20204;-90
2023/03/31 01:32:12;;;;;;;3.27;2.97;;;;;;;19.04;52.38;96840.78;4891794;29;20211;-90
2023/03/31 01:35:11;;;;;;;3.37;3.00;;;;;;;18.24;52.49;96718.84;4911371;29;20218;-92
2023/03/31 01:38:00;;;;;;;3.63;3.00;;;;;;;19.18;52.71;96867.53;4909715;29;20234;-92
2023/03/31 01:40:48;;;;;;;3.40;3.10;;;;;;;14.71;52.63;96131.84;4928753;29;21417;-91
2023/03/31 01:43:22;;;;;;;3.40;2.73;;;;;;;19.16;52.67;96840.28;4892686;29;20214;-93
2023/03/31 01:45:56;;;;;;;3.17;2.67;;;;;;;17.09;52.52;96509.50;4890480;29;20206;-92
2023/03/31 01:49:07;;;;;;;2.90;2.70;;;;;;;19.15;52.57;96841.97;4872362;29;20293;-91
2023/03/31 01:52:01;;;;;;;4.30;2.70;;;;;;;19.16;52.45;96835.19;4906969;29;20206;-89
2023/03/31 01:54:49;;;;;;;3.07;2.77;;;;;;;15.74;52.56;96252.50;4909081;29;20240;-90
2023/03/31 01:57:17;;;;;;;3.80;3.10;;;;;;;17.99;52.58;96644.34;4894743;29;20229;-91
2023/03/31 02:00:08;;;;;;;3.67;3.23;;;;;;;19.16;52.64;96835.19;4894564;29;20220;-89
2023/03/31 02:02:53;;;;;;;3.90;3.33;;;;;;;17.85;52.78;96626.16;4914168;29;20214;-89
2023/03/31 02:05:31;;;;;;;4.00;2.90;;;;;;;15.32;52.52;96203.00;4887288;29;20422;-90
2023/03/31 02:08:07;;;;;;;3.87;3.17;;;;;;;15.96;52.07;96291.22;4894591;29;20206;-91
2023/03/31 02:10:42;;;;;;;3.53;2.93;;;;;;;13.59;52.15;95856.06;4869724;29;20206;-93
2023/03/31 02:13:10;;;;;;;2.90;2.60;;;;;;;15.98;52.14;96273.53;4875482;29;20272;-91
2023/03/31 02:15:39;;;;;;;3.27;2.90;;;;;;;15.73;52.26;96256.75;4873824;29;20221;-91
2023/03/31 02:18:20;;;;;;;;;;;;;;;;;;;;;
2023/03/31 02:20:50;;;;;;;3.20;2.87;;;;;;;16.05;52.52;96311.78;4899516;29;20222;-90
2023/03/31 02:23:19;;;;;;;3.20;2.90;;;;;;;13.83;51.71;95925.88;4883269;29;20213;-90
2023/03/31 02:25:52;;;;;;;3.83;2.93;;;;;;;18.44;52.13;96678.72;4983294;23;20211;-93
2023/03/31 02:28:23;;;;;;;3.33;2.63;;;;;;;17.81;52.18;96559.94;4947828;28;20218;-92
2023/03/31 02:31:12;;;;;;;3.10;2.60;;;;;;;19.16;52.07;96794.44;4975357;28;20180;-90
2023/03/31 02:33:39;;;;;;;3.97;2.73;;;;;;;18.37;52.34;96653.97;4993133;28;20218;-92
2023/03/31 02:36:06;;;;;;;3.50;3.07;;;;;;;18.65;52.38;96709.84;4945460;29;20243;-91
2023/03/31 02:38:36;;;;;;;3.47;3.00;;;;;;;18.98;52.31;96755.75;4929977;28;20232;-92
2023/03/31 02:41:03;;;;;;;3.20;2.90;;;;;;;18.89;52.14;96730.06;4946025;29;20188;-93
2023/03/31 02:43:29;;;;;;;3.00;2.80;;;;;;;18.01;52.01;96577.50;4937424;28;20233;-92
2023/03/31 02:45:56;;;;;;;3.73;3.20;;;;;;;18.36;52.22;96646.25;4960405;29;20228;-91
2023/03/31 02:48:32;;;;;;;3.57;2.73;;;;;;;19.15;52.19;96770.66;4958963;28;20221;-92
2023/03/31 02:51:07;;;;;;;3.93;2.80;;;;;;;19.15;52.30;96775.75;4942084;28;20203;-92
2023/03/31 02:54:05;;;;;;;3.80;3.00;;;;;;;19.15;52.37;96773.19;4952786;28;20207;-91
2023/03/31 02:56:56;;;;;;;3.20;2.90;;;;;;;19.14;52.26;96768.06;4976032;28;20202;-91
2023/03/31 02:59:29;;;;;;;3.10;2.80;;;;;;;18.59;52.22;96680.88;4970809;28;20235;-92
2023/03/31 03:01:59;;;;;;;3.80;2.70;;;;;;;18.90;52.03;96716.50;4961243;28;20192;-92
2023/03/31 03:04:49;;;;;;;3.27;2.97;;;;;;;17.89;52.16;96551.69;4976472;28;20204;-91
2023/03/31 03:07:30;;;;;;;3.77;2.93;;;;;;;19.15;52.41;96757.91;4939949;28;20188;-89
2023/03/31 03:10:11;;;;;;;3.00;2.73;;;;;;;17.42;51.87;96452.97;4961601;28;20205;-91
2023/03/31 03:12:58;;;;;;;3.03;2.60;;;;;;;18.69;52.21;96673.53;4940694;28;20181;-92
2023/03/31 03:15:40;;;;;;;3.43;2.70;;;;;;;19.16;52.02;96735.88;4959926;28;20224;-93
2023/03/31 03:18:06;;;;;;;2.77;2.50;;;;;;;18.78;52.15;96680.53;4957558;28;20235;-91
2023/03/31 03:20:34;;;;;;;3.17;2.67;;;;;;;18.60;52.19;96655.47;4942141;28;20228;-93
2023/03/31 03:23:01;;;;;;;3.30;2.60;;;;;;;18.61;52.20;96648.66;4949162;29;20225;-93
2023/03/31 03:25:29;;;;;;;2.97;2.67;;;;;;;18.32;52.19;96604.59;4940572;28;20232;-92
2023/03/31 03:27:55;;;;;;;3.50;2.70;;;;;;;18.55;52.07;96654.47;4949463;29;20244;-91
2023/03/31 03:30:22;;;;;;;3.50;2.77;;;;;;;18.06;52.04;96557.28;4958543;28;20200;-91
2023/03/31 03:32:49;;;;;;;2.90;2.60;;;;;;;17.84;51.97;96545.66;4943858;29;20213;-91
2023/03/31 03:35:16;;;;;;;3.03;2.73;;;;;;;17.40;51.84;96466.41;4971386;28;20222;-92
2023/03/31 03:37:43;;;;;;;3.00;2.60;;;;;;;18.18;52.13;96598.31;4926796;29;20208;-91
2023/03/31 03:40:09;;;;;;;3.27;2.80;;;;;;;17.93;51.97;96545.91;4958640;28;20208;-92
2023/03/31 03:42:37;;;;;;;3.20;2.80;;;;;;;17.38;52.03;96471.44;4940571;28;20211;-92
2023/03/31 03:45:04;;;;;;;3.40;2.70;;;;;;;18.46;52.13;96635.53;4940872;28;20239;-92
2023/03/31 03:47:31;;;;;;;3.40;2.70;;;;;;;18.69;52.26;96678.59;4974207;28;20192;-92
2023/03/31 03:50:01;;;;;;;3.17;2.80;;;;;;;18.61;52.00;96648.66;4944974;29;20184;-92
2023/03/31 03:52:28;;;;;;;3.27;2.53;;;;;;;18.45;51.93;96628.72;4924014;28;20196;-92
2023/03/31 03:54:55;;;;;;;3.77;2.60;;;;;;;17.96;51.99;96537.50;4947690;29;20726;-91
2023/03/31 03:57:21;;;;;;;3.53;2.60;;;;;;;17.96;52.18;96535.81;4975975;28;20205;-92
2023/03/31 03:59:48;;;;;;;2.83;2.60;;;;;;;18.67;52.07;96634.44;4944724;28;20208;-92
2023/03/31 04:02:15;;;;;;;3.07;2.77;;;;;;;18.36;52.05;96581.00;4959477;29;20235;-92
2023/03/31 04:04:42;;;;;;;3.47;2.73;;;;;;;18.07;52.01;96529.38;4953298;28;20220;-93
2023/03/31 04:07:09;;;;;;;3.10;2.50;;;;;;;18.60;51.73;96614.75;4940379;29;20200;-93
2023/03/31 04:09:38;;;;;;;2.80;2.60;;;;;;;18.26;52.16;96548.50;4942592;28;20208;-93
2023/03/31 04:12:05;;;;;;;3.37;2.93;;;;;;;18.79;51.90;96628.78;4948887;29;20188;-89
2023/03/31 04:14:31;;;;;;;2.87;2.57;;;;;;;18.59;51.96;96590.09;4933507;28;20239;-89
2023/03/31 04:16:58;;;;;;;3.10;2.80;;;;;;;17.20;51.77;96364.28;4954952;29;20200;-92
2023/03/31 04:19:26;;;;;;;3.73;2.90;;;;;;;17.64;51.80;96440.06;4939967;28;20240;-91
2023/03/31 04:22:01;;;;;;;3.43;2.80;;;;;;;18.41;51.69;96551.47;4949842;29;20220;-93
2023/03/31 04:24:31;;;;;;;2.80;2.60;;;;;;;17.19;51.80;96328.72;4942968;28;20236;-92
2023/03/31 04:26:59;;;;;;;3.00;2.70;;;;;;;17.42;51.73;96366.63;4930671;28;20216;-92
2023/03/31 04:29:25;;;;;;;3.57;2.87;;;;;;;18.29;51.98;96492.63;4940169;28;20196;-91
2023/03/31 04:31:57;;;;;;;3.47;2.90;;;;;;;19.07;51.74;96628.69;4952097;29;20215;-92
2023/03/31 04:34:33;;;;;;;3.53;3.13;;;;;;;18.28;52.05;96493.44;4952498;29;20242;-90
2023/03/31 04:37:03;;;;;;;3.23;2.93;;;;;;;18.09;51.89;96442.97;4934253;29;20267;-92
2023/03/31 04:39:30;;;;;;;3.23;2.93;;;;;;;18.08;51.88;96438.69;4950473;28;20249;-92
2023/03/31 04:41:59;;;;;;;3.30;3.00;;;;;;;16.81;51.84;96223.63;4930672;28;20268;-91
2023/03/31 04:44:26;;;;;;;3.30;3.00;;;;;;;18.40;51.96;96526.00;4962749;28;20254;-92
2023/03/31 04:46:53;;;;;;;3.20;2.90;;;;;;;18.00;51.74;96425.78;4944283;28;20209;-91
2023/03/31 04:49:20;;;;;;;3.40;2.90;;;;;;;18.99;51.84;96575.03;4964977;28;20205;-91
2023/03/31 04:51:47;;;;;;;3.00;2.70;;;;;;;18.50;51.60;96493.19;4934185;28;20189;-93
2023/03/31 04:54:13;;;;;;;2.90;2.60;;;;;;;18.47;51.81;96482.09;4921399;29;20213;-92
2023/03/31 04:56:40;;;;;;;3.23;2.93;;;;;;;18.71;51.79;96497.97;4953628;28;20208;-92
2023/03/31 04:59:07;;;;;;;4.70;3.30;;;;;;;18.71;51.70;96480.16;4947260;29;20228;-92
2023/03/31 05:01:35;;;;;;;5.37;3.20;;;;;;;18.93;51.74;96520.53;4937065;28;20220;-91
2023/03/31 05:04:03;;;;;;;3.73;3.13;;;;;;;18.94;51.63;96499.34;4957548;29;20563;-93
2023/03/31 05:06:30;;;;;;;4.23;3.57;;;;;;;17.77;51.67;96289.63;4954831;28;20213;-93
2023/03/31 05:08:56;;;;;;;5.33;3.40;;;;;;;17.75;51.51;96275.19;4963582;28;20185;-93
2023/03/31 05:11:26;;;;;;;9.53;4.60;;;;;;;17.84;51.65;96296.59;4931915;29;20196;-93
2023/03/31 05:13:53;;;;;;;9.23;4.70;;;;;;;16.46;51.53;96067.13;4976741;28;20223;-92
2023/03/31 05:16:20;;;;;;;15.50;4.03;;;;;;;17.20;51.59;96165.44;4938604;29;20208;-95
2023/03/31 05:18:49;;;;;;;9.20;4.57;;;;;;;17.27;51.74;96172.38;4962319;28;20219;-95
2023/03/31 05:21:33;;;;;;;25.83;4.60;;;;;;;18.79;51.75;96408.22;5275330;23;20239;-94
2023/03/31 05:24:04;;;;;;;11.73;4.13;;;;;;;17.69;51.60;96236.94;4956281;28;20204;-95
2023/03/31 05:26:31;;;;;;;8.40;4.37;;;;;;;18.03;51.66;96269.94;4978115;28;20228;-95
2023/03/31 05:28:58;;;;;;;10.03;3.90;;;;;;;17.56;51.41;96196.84;4975381;28;20186;-95
2023/03/31 05:31:26;;;;;;;7.30;3.93;;;;;;;18.81;51.66;96400.63;4957368;28;20438;-93
2023/03/31 05:33:52;;;;;;;8.73;3.83;;;;;;;17.38;51.81;96143.03;4945699;28;20176;-95
2023/03/31 05:36:22;;;;;;;12.63;4.10;;;;;;;17.06;51.39;96076.28;4960423;29;20232;-93
2023/03/31 05:38:51;;;;;;;10.03;4.20;;;;;;;17.43;51.15;96141.44;5005130;23;20248;-94
2023/03/31 05:41:20;;;;;;;9.13;3.93;;;;;;;18.30;51.14;96273.13;5158741;23;20249;-91
2023/03/31 05:43:48;;;;;;;10.87;3.93;;;;;;;18.03;51.13;96217.41;4932133;28;20212;-91
2023/03/31 05:46:17;;;;;;;10.60;4.00;;;;;;;18.61;51.46;96317.91;4925427;29;20232;-89
2023/03/31 05:48:44;;;;;;;6.00;4.10;;;;;;;17.79;50.99;96188.91;4913639;29;20216;-91
2023/03/31 05:51:10;;;;;;;7.07;4.00;;;;;;;18.46;51.42;96297.22;4916996;29;20238;-91
2023/03/31 05:53:37;;;;;;;5.90;3.77;;;;;;;18.90;51.24;96348.25;4913399;29;20232;-91
2023/03/31 05:56:05;;;;;;;10.10;3.83;;;;;;;18.26;51.49;96247.59;4904664;29;20272;-93
2023/03/31 05:58:34;;;;;;;5.70;4.07;;;;;;;17.80;51.36;96167.75;4917825;29;20210;-92
2023/03/31 06:01:07;;;;;;;5.20;3.50;;;;;;;18.93;51.62;96337.25;4907258;29;20187;-91
2023/03/31 06:03:36;;;;;;;14.07;4.87;;;;;;;18.07;51.44;96185.31;4922609;29;20584;-93
2023/03/31 06:06:13;;;;;;;7.47;4.53;;;;;;;18.08;51.38;96165.00;4922840;29;20272;-94
2023/03/31 06:08:43;;;;;;;11.00;5.40;;;;;;;17.81;51.43;96126.28;4904707;29;20196;-94
2023/03/31 06:11:11;;;;;;;11.37;4.87;;;;;;;18.27;51.62;96198.44;4905567;29;20188;-93
2023/03/31 06:13:38;;;;;;;10.63;4.93;;;;;;;18.16;51.65;96178.75;4906356;29;20204;-93
2023/03/31 06:16:05;;;;;;;9.53;5.03;;;;;;;18.31;51.50;96208.69;4920161;29;20205;-93
2023/03/31 06:18:33;;;;;;;6.83;4.27;;;;;;;18.72;51.56;96266.41;4921896;29;20237;-93
2023/03/31 06:21:00;;;;;;;7.67;4.30;;;;;;;18.61;51.65;96247.53;4922866;29;20260;-93
2023/03/31 06:23:26;;;;;;;8.77;4.67;;;;;;;18.80;51.53;96304.75;4920125;29;20205;-91
2023/03/31 06:25:53;;;;;;;8.93;4.50;;;;;;;18.36;51.83;96204.59;4916741;29;20277;-93
2023/03/31 06:28:20;;;;;;;11.00;4.73;;;;;;;17.21;51.57;95986.94;4908772;29;20228;-93
2023/03/31 06:30:46;;;;;;;7.70;3.97;;;;;;;18.99;51.87;96297.50;4938473;29;20242;-94
2023/03/31 06:33:13;;;;;;;5.87;4.17;;;;;;;18.63;51.78;96220.44;4924354;29;20214;-93
2023/03/31 06:35:40;;;;;;;7.43;4.13;;;;;;;19.00;51.75;96281.41;4938997;29;20418;-92
2023/03/31 06:38:07;;;;;;;6.77;3.87;;;;;;;18.95;51.44;96282.97;4908637;29;20177;-92
2023/03/31 06:40:34;;;;;;;4.93;3.70;;;;;;;19.27;51.72;96320.16;4902483;29;20219;-93
2023/03/31 06:43:00;;;;;;;5.43;3.90;;;;;;;18.55;51.81;96182.94;4905216;29;20194;-94
2023/03/31 06:45:27;;;;;;;6.63;3.70;;;;;;;18.75;51.84;96238.50;4916311;29;20212;-91
2023/03/31 06:47:54;;;;;;;11.00;4.00;;;;;;;19.04;51.44;96277.22;4939400;29;20215;-93
2023/03/31 06:50:21;;;;;;;8.33;4.20;;;;;;;19.13;51.96;96285.88;4954344;29;20223;-93
2023/03/31 06:52:51;;;;;;;5.60;3.97;;;;;;;18.92;51.84;96271.91;4921941;29;20301;-92
2023/03/31 06:55:18;;;;;;;9.77;4.07;;;;;;;18.62;52.22;96233.13;4909750;29;20205;-93
2023/03/31 06:57:45;;;;;;;6.90;3.60;;;;;;;19.13;52.15;96302.88;4925057;29;20201;-93
2023/03/31 07:00:12;;;;;;;5.50;3.60;;;;;;;18.34;52.07;96177.38;4921082;29;20230;-94
2023/03/31 07:02:39;;;;;;;5.97;3.93;;;;;;;18.53;51.66;96217.69;4924325;29;20185;-92
2023/03/31 07:05:06;;;;;;;5.33;3.63;;;;;;;19.00;51.97;96323.81;4924122;29;20228;-92
2023/03/31 07:07:33;;;;;;;6.23;3.80;;;;;;;18.78;51.92;96284.34;4918569;29;20185;-93
2023/03/31 07:10:00;;;;;;;4.10;3.27;;;;;;;18.90;52.17;96314.28;4908402;29;20256;-94
2023/03/31 07:12:27;;;;;;;17.23;4.37;;;;;;;18.56;52.27;96263.53;4924397;29;20239;-94
2023/03/31 07:14:54;;;;;;;14.50;4.10;;;;;;;18.51;52.65;96260.03;4933023;29;20242;-94
2023/03/31 07:17:20;;;;;;;13.57;3.73;;;;;;;17.12;52.01;96037.50;4917720;29;21010;-92
2023/03/31 07:19:47;;;;;;;12.93;3.90;;;;;;;19.00;52.34;96364.53;4907726;29;20208;-93
2023/03/31 07:22:14;;;;;;;10.17;3.93;;;;;;;18.76;52.49;96314.00;4921107;29;20410;-92
2023/03/31 07:24:41;;;;;;;14.10;3.77;;;;;;;18.69;52.43;96309.63;4906777;29;20234;-93
2023/03/31 07:27:08;;;;;;;11.10;3.27;;;;;;;19.24;52.51;96378.63;4916890;29;20217;-93
2023/03/31 07:29:34;;;;;;;10.40;4.20;;;;;;;18.60;52.91;96263.63;4915898;29;20257;-93
2023/03/31 07:32:01;;;;;;;12.20;3.60;;;;;;;17.46;52.70;96056.06;4906269;29;20205;-94
2023/03/31 07:34:28;;;;;;;11.60;4.10;;;;;;;18.56;52.89;96248.25;4935492;29;20280;-92
2023/03/31 07:36:55;;;;;;;9.00;3.90;;;;;;;19.52;52.79;96408.13;4924310;29;20204;-93
2023/03/31 07:39:21;;;;;;;11.63;4.47;;;;;;;19.05;52.69;96319.69;4939272;29;20225;-92
2023/03/31 07:41:48;;;;;;;10.10;3.60;;;;;;;18.91;52.39;96282.91;4923575;28;20253;-94
2023/03/31 07:44:22;;;;;;;10.83;3.80;;;;;;;17.94;53.10;96129.94;4936862;29;20256;-92
2023/03/31 07:46:52;;;;;;;7.57;3.93;;;;;;;19.24;52.81;96371.00;4923277;29;20185;-93
2023/03/31 07:49:26;;;;;;;13.17;4.20;;;;;;;18.95;53.15;96287.25;4911154;29;20217;-93
2023/03/31 07:51:56;;;;;;;8.53;4.20;;;;;;;18.42;52.90;96161.50;4907631;29;20197;-93
2023/03/31 07:54:33;;;;;;;12.47;4.13;;;;;;;16.56;52.86;95848.50;4913234;29;20279;-93
2023/03/31 07:57:02;;;;;;;11.20;4.27;;;;;;;17.28;52.86;95963.38;4920931;29;20181;-92
2023/03/31 07:59:39;;;;;;;12.03;4.20;;;;;;;18.65;52.98;96200.94;4908584;29;20249;-93
2023/03/31 08:02:05;;;;;;;6.33;3.90;;;;;;;18.24;53.10;96110.25;4901520;29;20216;-92
2023/03/31 08:04:32;;;;;;;16.87;4.17;;;;;;;18.66;53.06;96167.06;4936375;29;20238;-91
2023/03/31 08:07:08;;;;;;;8.73;3.80;;;;;;;17.50;53.11;95980.81;4910728;29;20205;-91
2023/03/31 08:09:39;;;;;;;7.47;3.90;;;;;;;18.51;53.24;96151.50;4905829;29;20196;-92
2023/03/31 08:12:06;;;;;;;9.77;4.23;;;;;;;17.02;52.95;95875.72;4921006;29;20181;-92
2023/03/31 08:14:34;;;;;;;6.93;4.00;;;;;;;17.13;53.30;95882.72;4917135;29;20221;-90
2023/03/31 08:17:11;;;;;;;8.53;4.50;;;;;;;16.73;53.13;95791.41;4926050;29;20215;-91
2023/03/31 08:19:50;;;;;;;10.43;4.43;;;;;;;17.86;53.50;95991.72;4906410;29;20257;-93
2023/03/31 08:22:22;;;;;;;8.70;4.20;;;;;;;17.93;53.42;95978.28;4916468;29;20224;-92
2023/03/31 08:24:58;;;;;;;10.47;4.57;;;;;;;16.41;53.42;95698.56;4936788;29;20229;-93
2023/03/31 08:27:41;;;;;;;9.63;4.97;;;;;;;17.42;53.53;95866.38;4929422;28;20208;-94
2023/03/31 08:30:14;;;;;;;9.30;4.27;;;;;;;16.67;53.40;95749.84;4930999;29;20205;-92
2023/03/31 08:33:35;;;;;;;9.63;4.93;;;;;;;17.79;53.93;95965.31;4954326;29;20195;-95
2023/03/31 08:36:16;;;;;;;7.50;4.23;;;;;;;16.96;53.61;95797.78;4945682;29;20192;-93
2023/03/31 08:39:00;;;;;;;9.47;4.80;;;;;;;16.67;53.29;95813.25;4937150;29;20211;-93
2023/03/31 08:41:54;;;;;;;9.57;4.70;;;;;;;18.83;53.73;96175.84;4916041;29;20244;-92
2023/03/31 08:44:55;;;;;;;7.70;4.37;;;;;;;16.96;53.58;95911.09;4933801;29;20204;-92
2023/03/31 08:47:36;;;;;;;8.23;4.60;;;;;;;16.75;53.68;95901.34;4958872;29;20618;-92
2023/03/31 08:50:11;;;;;;;9.37;5.07;;;;;;;17.87;53.62;96098.47;4913375;29;20186;-93
2023/03/31 08:53:02;;;;;;;8.93;4.40;;;;;;;18.85;53.84;96287.88;4915116;29;20201;-93
2023/03/31 08:56:15;;;;;;;8.77;4.70;;;;;;;18.81;53.87;96302.22;4950649;29;20240;-93
2023/03/31 08:59:36;;;;;;;10.63;4.57;;;;;;;16.80;53.62;95869.31;4945726;29;20291;-93
2023/03/31 09:02:48;;;;;;;7.93;4.60;;;;;;;19.46;53.56;96304.41;4927312;29;20185;-92
2023/03/31 09:08:40;;;;;;;8.90;4.43;;;;;;;16.89;53.65;95849.22;4953437;29;20197;-94
2023/03/31 09:11:56;;;;;;;10.23;4.23;;;;;;;19.45;53.80;96267.00;4931423;29;20177;-90
2023/03/31 09:15:51;;;;;;;7.67;4.20;;;;;;;19.45;53.70;96236.41;4945100;29;20239;-94
2023/03/31 09:18:49;;;;;;;8.20;4.43;;;;;;;19.46;53.57;96224.56;4882591;29;20279;-92
2023/03/31 09:21:53;;;;;;;7.33;3.83;;;;;;;16.44;53.65;95744.31;4870864;29;20208;-94
2023/03/31 09:24:58;;;;;;;11.13;4.20;;;;;;;16.78;53.53;95776.28;4867358;29;20235;-94
2023/03/31 09:28:26;;;;;;;12.63;4.77;;;;;;;17.20;53.34;95854.06;4881979;29;20224;-91
2023/03/31 09:31:13;;;;;;;8.70;4.33;;;;;;;19.42;53.71;96231.28;4933580;29;20197;-93
2023/03/31 09:45:20;;;;;;;13.23;4.73;;;;;;;19.43;53.71;96202.44;4993976;28;20262;-94
2023/03/31 09:48:32;;;;;;;9.77;4.80;;;;;;;18.24;53.70;95989.03;4982432;28;20196;-91
2023/03/31 09:51:26;;;;;;;7.90;4.17;;;;;;;19.43;53.73;96194.78;4965585;28;20188;-92
2023/03/31 09:54:28;;;;;;;8.87;4.23;;;;;;;17.45;53.64;95857.97;4949325;28;20201;-94
2023/03/31 09:56:55;;;;;;;10.10;3.90;;;;;;;17.29;53.79;95836.47;4968281;28;20194;-94
2023/03/31 09:59:35;;;;;;;8.97;3.90;;;;;;;17.69;53.62;95916.84;4946548;29;20212;-91
2023/03/31 10:02:39;;;;;;;7.10;4.17;;;;;;;19.44;53.65;96196.50;4949541;28;20226;-92
2023/03/31 10:05:50;;;;;;;8.50;4.47;;;;;;;19.43;53.51;96186.28;4983249;28;20222;-93
2023/03/31 10:08:56;;;;;;;7.53;3.80;;;;;;;16.27;53.58;95646.75;4968437;28;20208;-92
2023/03/31 10:11:37;;;;;;;10.50;4.33;;;;;;;17.86;53.65;95923.94;4974351;28;20188;-92
2023/03/31 10:14:13;;;;;;;6.70;3.77;;;;;;;17.09;53.60;95789.59;4942238;28;20222;-95
2023/03/31 10:40:58;;;;;;;8.77;3.53;;;;;;;18.66;54.22;95996.59;771322;23;20494;-92
2023/03/31 10:43:28;;;;;;;9.13;3.50;;;;;;;16.97;54.10;95697.16;4979367;28;20216;-94
2023/03/31 10:45:59;;;;;;;15.57;4.00;;;;;;;18.31;54.13;95928.97;4948118;28;20209;-93
2023/03/31 10:48:31;;;;;;;13.73;4.57;;;;;;;17.56;54.26;95820.94;4946568;28;20209;-94
2023/03/31 10:51:03;;;;;;;12.23;4.10;;;;;;;19.22;54.38;96086.56;4956710;28;20191;-92
2023/03/31 10:53:41;;;;;;;10.70;4.30;;;;;;;16.73;54.44;95658.66;4964868;28;20203;-92
2023/03/31 10:56:43;;;;;;;7.20;3.90;;;;;;;16.85;54.04;95700.31;4954787;28;20179;-92
2023/03/31 10:59:19;;;;;;;13.73;4.30;;;;;;;19.51;54.26;96121.88;4983837;28;20206;-96
2023/03/31 11:02:24;;;;;;;13.53;4.27;;;;;;;19.51;54.08;96113.38;5019097;23;20216;-93
2023/03/31 11:05:08;;;;;;;9.43;3.53;;;;;;;18.10;54.09;95843.06;4962740;28;20200;-94
2023/03/31 11:07:55;;;;;;;15.57;4.00;;;;;;;19.50;54.00;96087.03;4939754;29;20204;-92
2023/03/31 11:10:40;;;;;;;10.27;4.00;;;;;;;19.50;54.00;96089.59;4942160;28;20216;-95
2023/03/31 11:13:45;;;;;;;9.93;3.63;;;;;;;19.49;54.11;96080.25;4941593;29;20181;-96
2023/03/31 11:16:54;;;;;;;7.20;3.53;;;;;;;19.49;53.92;96052.22;4952647;28;20216;-94
2023/03/31 11:19:36;;;;;;;9.57;3.80;;;;;;;19.49;54.02;96057.31;4945668;29;20220;-91
2023/03/31 11:22:30;;;;;;;8.83;2.97;;;;;;;17.93;53.37;95783.47;4923428;29;20209;-93
2023/03/31 11:25:28;;;;;;;9.53;3.77;;;;;;;19.48;53.63;96047.94;4904566;29;20201;-93
2023/03/31 11:28:29;;;;;;;11.03;3.50;;;;;;;19.47;53.81;96047.91;4948908;29;20208;-92
2023/03/31 11:32:01;;;;;;;7.20;3.30;;;;;;;16.78;53.51;95602.09;4960593;28;20220;-95
2023/03/31 11:35:21;;;;;;;10.30;3.70;;;;;;;19.46;53.78;96053.84;4955038;29;20205;-93
2023/03/31 11:38:14;;;;;;;6.37;3.30;;;;;;;19.46;53.90;96053.84;4938867;29;20188;-93
2023/03/31 11:41:08;;;;;;;7.83;3.30;;;;;;;16.68;53.77;95574.88;4957642;28;20237;-93
2023/03/31 11:43:48;;;;;;;7.30;3.40;;;;;;;19.45;53.87;96040.25;4945321;28;20192;-91
2023/03/31 11:46:14;;;;;;;7.67;3.10;;;;;;;19.45;53.66;96016.50;4944175;29;20205;-92
2023/03/31 11:48:47;;;;;;;5.57;2.60;;;;;;;18.69;53.88;95894.00;4938967;28;20201;-96
2023/03/31 11:51:25;;;;;;;6.67;3.37;;;;;;;18.61;53.63;95858.28;4911985;29;20184;-93
2023/03/31 11:53:53;;;;;;;7.30;3.20;;;;;;;19.38;53.90;96007.03;4905500;29;20198;-94
2023/03/31 11:56:20;;;;;;;6.17;3.43;;;;;;;18.09;53.74;95782.03;4921776;28;20252;-95
2023/03/31 11:58:56;;;;;;;5.70;3.07;;;;;;;18.43;53.84;95832.56;4913392;29;20185;-95
2023/03/31 12:01:27;;;;;;;6.90;3.17;;;;;;;19.45;53.84;95988.47;4920459;29;20227;-95
2023/03/31 12:04:19;;;;;;;6.17;3.40;;;;;;;18.93;54.02;95917.25;4924283;29;20190;-95
2023/03/31 12:06:46;;;;;;;4.93;2.93;;;;;;;18.56;53.32;95841.25;4919638;29;20194;-93
2023/03/31 12:09:22;;;;;;;7.37;3.00;;;;;;;17.22;53.67;95591.00;4927557;28;20239;-96
2023/03/31 12:11:54;;;;;;;4.30;2.73;;;;;;;17.06;53.67;95562.81;4930600;29;20214;-95
2023/03/31 12:14:36;;;;;;;6.23;2.77;;;;;;;19.46;53.66;95964.69;4938467;29;20231;-95
2023/03/31 12:17:17;;;;;;;5.43;2.90;;;;;;;17.09;53.40;95571.34;4931325;28;20181;-95
2023/03/31 12:19:49;;;;;;;9.17;3.13;;;;;;;19.45;53.63;95951.09;4916742;29;20196;-95
2023/03/31 12:22:19;;;;;;;4.70;3.00;;;;;;;18.69;53.58;95822.75;4940487;29;20185;-95
2023/03/31 12:24:46;;;;;;;8.23;2.90;;;;;;;17.50;53.32;95605.84;4936055;28;20228;-96
2023/03/31 12:27:26;;;;;;;6.53;3.57;;;;;;;19.45;53.54;95930.72;4921670;29;20225;-92
2023/03/31 12:29:58;;;;;;;5.10;3.13;;;;;;;18.08;53.68;95699.84;4937322;29;20212;-93
2023/03/31 12:32:30;;;;;;;3.67;2.73;;;;;;;19.32;53.60;95917.81;4925834;29;20196;-93
2023/03/31 12:35:03;;;;;;;5.53;2.80;;;;;;;18.15;53.54;95723.66;4903152;29;20217;-95
2023/03/31 12:37:59;;;;;;;8.03;2.80;;;;;;;18.41;53.55;95740.13;4908224;29;20256;-91
2023/03/31 12:41:03;;;;;;;5.60;3.07;;;;;;;19.46;53.69;95906.09;4910492;29;20526;-93
2023/03/31 12:43:48;;;;;;;4.63;2.87;;;;;;;18.96;53.70;95830.75;4939571;29;20207;-93
2023/03/31 12:46:52;;;;;;;7.23;3.10;;;;;;;19.45;54.04;95920.53;4939512;29;20243;-93
2023/03/31 12:49:19;;;;;;;4.30;2.80;;;;;;;19.45;53.90;95920.53;4950876;28;20221;-94
2023/03/31 12:52:22;;;;;;;6.20;3.13;;;;;;;19.45;53.89;95934.97;4936552;29;20394;-95
2023/03/31 12:55:21;;;;;;;4.53;2.70;;;;;;;19.46;54.08;95926.47;4937714;29;20220;-93
2023/03/31 12:57:48;;;;;;;6.67;2.80;;;;;;;18.93;54.08;95841.75;4915583;29;20666;-93